createdAt,value
2019-05-10T00:02:19.180Z,97250.02
2019-05-10T00:05:04.240Z,97261.09
2019-05-10T00:07:48.939Z,97260.38
2019-05-10T00:10:16.553Z,97251.75
2019-05-10T00:13:05.426Z,97254.73
2019-05-10T00:15:34.299Z,97255.16
2019-05-10T00:18:00.936Z,97257.00
2019-05-10T00:20:27.513Z,97267.89
2019-05-10T00:22:54.105Z,97259.98
2019-05-10T00:25:20.610Z,97266.08
2019-05-10T00:27:47.778Z,97266.80
2019-05-10T00:30:14.390Z,97268.78
2019-05-10T00:32:40.968Z,97268.78
2019-05-10T00:35:07.631Z,97270.68
2019-05-10T00:37:34.200Z,97269.72
2019-05-10T00:40:00.697Z,97272.27
2019-05-10T00:42:27.239Z,97273.34
2019-05-10T00:44:53.767Z,97279.31
2019-05-10T00:47:20.459Z,97284.41
2019-05-10T00:49:47.039Z,97280.75
2019-05-10T00:52:13.680Z,97288.80
2019-05-10T00:54:40.262Z,97291.95
2019-05-10T00:57:06.875Z,97282.55
2019-05-10T00:59:33.404Z,97287.11
2019-05-10T01:02:00.096Z,97283.83
2019-05-10T01:04:26.696Z,97291.55
2019-05-10T01:06:56.250Z,97289.09
2019-05-10T01:09:22.035Z,97298.47
2019-05-10T01:11:48.699Z,97298.56
2019-05-10T01:14:15.232Z,97304.17
2019-05-10T01:16:41.931Z,97298.08
2019-05-10T01:19:08.727Z,97301.62
2019-05-10T01:21:35.471Z,97310.37
2019-05-10T01:24:02.256Z,97306.73
2019-05-10T01:26:28.941Z,97310.93
2019-05-10T01:28:55.517Z,97314.70
2019-05-10T01:31:22.170Z,97317.02
2019-05-10T01:33:48.857Z,97321.64
2019-05-10T01:36:15.896Z,97322.37
2019-05-10T01:38:42.587Z,97327.45
2019-05-10T01:41:09.111Z,97330.27
2019-05-10T01:43:35.667Z,97328.88
2019-05-10T01:46:02.601Z,97329.34
2019-05-10T01:48:29.162Z,97328.95
2019-05-10T01:50:55.721Z,97338.14
2019-05-10T01:53:22.475Z,97343.84
2019-05-10T01:55:52.458Z,97342.92
2019-05-10T01:58:17.835Z,97347.26
2019-05-10T02:00:44.402Z,97346.80
2019-05-10T02:05:43.870Z,97347.94
2019-05-10T02:08:11.945Z,97346.30
2019-05-10T02:10:39.174Z,97355.95
2019-05-10T02:13:05.757Z,97357.27
2019-05-10T02:15:32.604Z,97350.17
2019-05-10T02:17:59.277Z,97363.76
2019-05-10T02:20:26.091Z,97363.16
2019-05-10T02:22:52.720Z,97364.63
2019-05-10T02:25:19.257Z,97365.95
2019-05-10T02:27:45.894Z,97370.80
2019-05-10T02:30:12.864Z,97376.52
2019-05-10T02:32:39.481Z,97378.29
2019-05-10T02:35:06.806Z,97378.29
2019-05-10T02:37:33.778Z,97383.47
2019-05-10T02:40:00.347Z,97383.94
2019-05-10T02:42:26.940Z,97387.34
2019-05-10T02:44:53.697Z,97383.86
2019-05-10T02:47:20.348Z,97389.48
2019-05-10T02:49:46.956Z,97386.03
2019-05-10T02:52:13.953Z,97389.58
2019-05-10T02:54:40.665Z,97390.36
2019-05-10T02:57:07.733Z,97397.34
2019-05-10T02:59:34.619Z,97400.83
2019-05-10T03:02:03.907Z,97402.08
2019-05-10T03:04:32.650Z,97400.77
2019-05-10T03:07:03.997Z,97407.43
2019-05-10T03:09:31.000Z,97405.52
2019-05-10T03:12:09.005Z,97403.79
2019-05-10T03:14:40.280Z,97420.00
2019-05-10T03:17:06.895Z,97415.89
2019-05-10T03:19:35.038Z,97420.23
2019-05-10T03:22:05.225Z,97429.88
2019-05-10T03:24:34.216Z,97430.80
2019-05-10T03:27:01.006Z,97439.98
2019-05-10T03:29:27.953Z,97435.91
2019-05-10T03:31:54.642Z,97442.48
2019-05-10T03:34:21.442Z,97448.13
2019-05-10T03:36:48.752Z,97456.00
2019-05-10T03:39:16.380Z,97451.67
2019-05-10T03:41:43.305Z,97460.37
2019-05-10T03:44:11.455Z,97460.77
2019-05-10T03:46:38.817Z,97467.81
2019-05-10T03:49:06.328Z,97465.19
2019-05-10T03:51:33.595Z,97471.75
2019-05-10T03:54:01.630Z,97468.73
2019-05-10T03:56:30.026Z,97471.27
2019-05-10T03:58:57.006Z,97469.55
2019-05-10T04:01:23.793Z,97469.13
2019-05-10T04:03:50.784Z,97468.34
2019-05-10T04:06:29.710Z,97478.62
2019-05-10T04:08:56.718Z,97474.58
2019-05-10T04:11:24.847Z,97474.12
2019-05-10T04:13:51.711Z,97479.83
2019-05-10T04:16:18.538Z,97474.09
2019-05-10T04:18:45.836Z,97478.91
2019-05-10T04:21:12.447Z,97474.94
2019-05-10T04:23:39.199Z,97481.44
2019-05-10T04:26:05.759Z,97482.09
2019-05-10T04:28:32.626Z,97479.90
2019-05-10T04:30:59.246Z,97482.46
2019-05-10T04:33:26.025Z,97486.66
2019-05-10T04:35:52.719Z,97486.95
2019-05-10T04:38:19.259Z,97491.84
2019-05-10T04:40:59.030Z,97487.91
2019-05-10T04:43:25.891Z,97496.64
2019-05-10T04:45:52.617Z,97498.55
2019-05-10T04:48:19.541Z,97505.17
2019-05-10T04:50:49.004Z,97507.05
2019-05-10T04:53:14.530Z,97511.34
2019-05-10T04:55:41.101Z,97511.11
2019-05-10T04:58:07.613Z,97512.45
2019-05-10T05:00:45.836Z,97511.56
2019-05-10T05:03:12.467Z,97522.47
2019-05-10T05:05:43.115Z,97524.48
2019-05-10T05:08:09.836Z,97529.73
2019-05-10T05:10:36.474Z,97534.88
2019-05-10T05:13:03.085Z,97533.09
2019-05-10T05:15:44.940Z,97539.00
2019-05-10T05:18:11.607Z,97539.37
2019-05-10T05:20:38.231Z,97537.67
2019-05-10T05:23:24.232Z,97537.31
2019-05-10T05:25:50.780Z,97543.38
2019-05-10T05:28:18.384Z,97553.25
2019-05-10T05:33:43.795Z,97554.14
2019-05-10T05:36:10.491Z,97562.03
2019-05-10T05:38:40.420Z,97564.59
2019-05-10T05:41:05.759Z,97570.84
2019-05-10T05:43:32.313Z,97568.61
2019-05-10T05:45:58.833Z,97568.60
2019-05-10T05:48:39.446Z,97565.58
2019-05-10T05:50:53.976Z,97569.67
2019-05-10T05:53:22.482Z,97579.12
2019-05-10T05:55:50.255Z,97571.94
2019-05-10T05:58:26.840Z,97570.64
2019-05-10T06:00:46.775Z,97572.24
2019-05-10T06:03:19.689Z,97580.52
2019-05-10T06:05:43.287Z,97578.61
2019-05-10T06:08:22.393Z,97586.42
2019-05-10T06:10:44.111Z,97581.92
2019-05-10T06:13:15.210Z,97583.20
2019-05-10T06:15:41.970Z,97587.06
2019-05-10T06:18:09.689Z,97597.86
2019-05-10T06:20:38.113Z,97595.05
2019-05-10T06:23:07.133Z,97599.20
2019-05-10T06:25:42.685Z,97599.53
2019-05-10T06:28:03.425Z,97600.61
2019-05-10T06:30:30.092Z,97611.98
2019-05-10T06:33:00.842Z,97609.58
2019-05-10T06:35:25.065Z,97609.50
2019-05-10T06:37:51.641Z,97612.77
2019-05-10T06:40:18.589Z,97604.48
2019-05-10T06:42:47.466Z,97608.05
2019-05-10T06:45:16.205Z,97607.50
2019-05-10T06:47:47.701Z,97608.45
2019-05-10T06:50:12.062Z,97611.03
2019-05-10T06:52:38.635Z,97600.83
2019-05-10T06:55:06.540Z,97602.53
2019-05-10T06:57:33.308Z,97604.39
2019-05-10T07:00:06.158Z,97603.16
2019-05-10T07:02:32.339Z,97597.25
2019-05-10T07:04:58.139Z,97592.37
2019-05-10T07:07:42.661Z,97590.50
2019-05-10T07:10:10.096Z,97596.92
2019-05-10T07:12:22.696Z,97597.21
2019-05-10T07:14:49.459Z,97596.07
2019-05-10T07:17:16.550Z,97596.69
2019-05-10T07:19:53.283Z,97605.80
2019-05-10T07:22:12.065Z,97607.16
2019-05-10T07:24:38.853Z,97606.83
2019-05-10T07:27:06.886Z,97610.39
2019-05-10T07:29:43.421Z,97610.16
2019-05-10T07:32:06.015Z,97610.20
2019-05-10T07:34:32.464Z,97607.27
2019-05-10T07:37:02.159Z,97603.67
2019-05-10T07:39:29.736Z,97601.81
2019-05-10T07:42:00.309Z,97609.98
2019-05-10T07:44:25.120Z,97606.91
2019-05-10T07:46:58.503Z,97609.82
2019-05-10T07:49:29.984Z,97610.08
2019-05-10T07:51:53.815Z,97613.75
2019-05-10T07:54:20.432Z,97607.47
2019-05-10T07:56:47.905Z,97607.70
2019-05-10T07:59:16.269Z,97613.38
2019-05-10T08:01:48.633Z,97616.00
2019-05-10T08:04:13.097Z,97620.89
2019-05-10T08:06:45.180Z,97615.66
2019-05-10T08:09:09.708Z,97618.64
2019-05-10T08:11:38.926Z,97618.30
2019-05-10T08:14:19.262Z,97640.41
2019-05-10T08:16:51.890Z,97629.39
2019-05-10T08:19:15.405Z,97633.91
2019-05-10T08:21:42.103Z,97626.73
2019-05-10T08:24:13.638Z,97628.84
2019-05-10T08:26:38.689Z,97629.31
2019-05-10T08:29:07.610Z,97629.31
2019-05-10T08:31:40.492Z,97630.80
2019-05-10T08:34:03.500Z,97637.34
2019-05-10T08:36:32.226Z,97636.69
2019-05-10T08:39:13.102Z,97636.69
2019-05-10T08:42:04.205Z,97642.14
2019-05-10T08:44:24.486Z,97642.69
2019-05-10T08:46:52.538Z,97645.95
2019-05-10T08:49:39.451Z,97656.20
2019-05-10T08:51:56.913Z,97664.31
2019-05-10T08:54:26.445Z,97666.34
2019-05-10T08:57:01.200Z,97675.36
2019-05-10T08:59:26.674Z,97674.55
2019-05-10T09:01:53.754Z,97678.98
2019-05-10T09:04:25.083Z,97686.79
2019-05-10T09:06:55.323Z,97687.09
2019-05-10T09:09:22.699Z,97689.51
2019-05-10T09:11:48.980Z,97697.83
2019-05-10T09:14:20.279Z,97696.36
2019-05-10T09:16:50.845Z,97706.97
2019-05-10T09:19:13.089Z,97708.47
2019-05-10T09:21:41.011Z,97716.01
2019-05-10T09:24:12.855Z,97715.16
2019-05-10T09:26:41.836Z,97724.78
2019-05-10T09:29:08.380Z,97725.22
2019-05-10T09:31:39.265Z,97725.91
2019-05-10T09:34:04.562Z,97727.33
2019-05-10T09:36:36.009Z,97728.83
2019-05-10T09:38:59.986Z,97733.43
2019-05-10T09:41:27.679Z,97742.27
2019-05-10T09:43:58.543Z,97749.59
2019-05-10T09:46:25.413Z,97749.03
2019-05-10T09:48:54.665Z,97756.03
2019-05-10T09:51:25.485Z,97762.89
2019-05-10T09:53:49.180Z,97753.68
2019-05-10T09:56:17.337Z,97751.30
2019-05-10T09:58:44.763Z,97752.63
2019-05-10T10:01:18.140Z,97752.27
2019-05-10T10:03:43.568Z,97748.91
2019-05-10T10:06:11.378Z,97752.05
2019-05-10T10:08:51.193Z,97756.21
2019-05-10T10:11:15.718Z,97755.06
2019-05-10T10:13:44.001Z,97744.52
2019-05-10T10:16:21.891Z,97750.94
2019-05-10T10:18:48.397Z,97760.00
2019-05-10T10:21:18.859Z,97755.01
2019-05-10T10:23:43.850Z,97751.87
2019-05-10T10:26:12.663Z,97749.11
2019-05-10T10:28:39.803Z,97759.51
2019-05-10T10:31:08.494Z,97760.45
2019-05-10T10:33:38.185Z,97767.50
2019-05-10T10:36:09.948Z,97757.80
2019-05-10T10:38:39.150Z,97756.05
2019-05-10T10:41:02.415Z,97754.03
2019-05-10T10:43:28.994Z,97759.77
2019-05-10T10:45:57.455Z,97762.96
2019-05-10T10:48:24.324Z,97769.81
2019-05-10T10:50:55.555Z,97764.64
2019-05-10T10:53:19.336Z,97772.08
2019-05-10T10:55:54.155Z,97772.08
2019-05-10T10:58:14.598Z,97778.80
2019-05-10T11:00:41.621Z,97780.54
2019-05-10T11:03:08.330Z,97784.65
2019-05-10T11:05:36.017Z,97788.27
2019-05-10T11:08:02.857Z,97791.20
2019-05-10T11:10:34.910Z,97799.19
2019-05-10T11:13:10.711Z,97794.50
2019-05-10T11:15:35.985Z,97805.13
2019-05-10T11:18:00.525Z,97808.39
2019-05-10T11:20:27.268Z,97821.66
2019-05-10T11:22:53.901Z,97816.07
2019-05-10T11:25:21.305Z,97818.22
2019-05-10T11:27:53.902Z,97830.72
2019-05-10T11:30:18.092Z,97837.27
2019-05-10T11:32:44.608Z,97833.45
2019-05-10T11:35:17.422Z,97836.22
2019-05-10T11:37:45.392Z,97835.81
2019-05-10T11:40:18.082Z,97840.11
2019-05-10T11:42:45.845Z,97844.27
2019-05-10T11:45:11.123Z,97843.00
2019-05-10T11:47:37.873Z,97842.95
2019-05-10T11:50:06.579Z,97851.05
2019-05-10T11:52:34.609Z,97842.25
2019-05-10T11:55:02.152Z,97846.28
2019-05-10T11:57:32.380Z,97842.92
2019-05-10T11:59:57.122Z,97840.35
2019-05-10T12:02:37.293Z,97845.92
2019-05-10T12:04:54.169Z,97854.12
2019-05-10T12:07:24.577Z,97843.84
2019-05-10T12:09:55.728Z,97844.55
2019-05-10T12:12:30.625Z,97835.98
2019-05-10T12:14:49.047Z,97840.39
2019-05-10T12:17:15.638Z,97833.46
2019-05-10T12:19:45.492Z,97827.64
2019-05-10T12:22:15.956Z,97831.45
2019-05-10T12:24:57.146Z,97831.29
2019-05-10T12:27:18.877Z,97847.45
2019-05-10T12:29:36.628Z,97845.64
2019-05-10T12:32:06.282Z,97846.07
2019-05-10T12:34:33.369Z,97843.05
2019-05-10T12:37:08.272Z,97844.75
2019-05-10T12:39:36.573Z,97847.11
2019-05-10T12:42:03.432Z,97845.31
2019-05-10T12:44:33.500Z,97847.02
2019-05-10T12:47:01.249Z,97854.92
2019-05-10T12:49:28.020Z,97856.41
2019-05-10T12:51:54.603Z,97851.94
2019-05-10T12:54:23.833Z,97843.78
2019-05-10T12:56:49.850Z,97851.37
2019-05-10T12:59:16.596Z,97856.05
2019-05-10T13:01:43.124Z,97852.36
2019-05-10T13:04:14.634Z,97863.25
2019-05-10T13:06:38.167Z,97855.34
2019-05-10T13:09:05.632Z,97856.95
2019-05-10T13:11:32.297Z,97865.63
2019-05-10T13:14:00.888Z,97862.39
2019-05-10T13:16:27.623Z,97851.18
2019-05-10T13:18:54.221Z,97868.38
2019-05-10T13:21:23.058Z,97868.58
2019-05-10T13:23:53.206Z,97872.61
2019-05-10T13:26:17.736Z,97876.94
2019-05-10T13:28:44.767Z,97872.14
2019-05-10T13:31:14.865Z,97865.05
2019-05-10T13:33:42.265Z,97863.27
2019-05-10T13:36:08.442Z,97857.32
2019-05-10T13:38:36.900Z,97853.10
2019-05-10T13:41:03.489Z,97851.39
2019-05-10T13:43:31.178Z,97852.17
2019-05-10T13:45:57.821Z,97866.48
2019-05-10T13:48:26.614Z,97872.37
2019-05-10T13:50:54.106Z,97868.20
2019-05-10T13:53:23.058Z,97861.00
2019-05-10T13:55:49.214Z,97855.25
2019-05-10T13:58:16.012Z,97901.73
2019-05-10T14:00:45.787Z,97852.99
2019-05-10T14:03:14.616Z,97868.19
2019-05-10T14:05:41.622Z,97864.77
2019-05-10T14:08:09.490Z,97866.75
2019-05-10T14:10:36.071Z,97863.16
2019-05-10T14:13:04.118Z,97867.17
2019-05-10T14:15:31.668Z,97871.16
2019-05-10T14:17:58.894Z,97873.75
2019-05-10T14:20:27.644Z,97934.97
2019-05-10T14:22:58.389Z,97871.70
2019-05-10T14:25:22.962Z,97887.95
2019-05-10T14:27:51.885Z,97876.50
2019-05-10T14:30:19.847Z,97887.98
2019-05-10T14:32:46.491Z,97881.50
2019-05-10T14:35:16.490Z,97891.70
2019-05-10T14:37:41.794Z,97890.13
2019-05-10T14:40:08.376Z,97891.27
2019-05-10T14:42:35.062Z,97888.09
2019-05-10T14:45:02.254Z,97888.39
2019-05-10T14:47:28.884Z,97881.19
2019-05-10T14:49:55.695Z,97881.68
2019-05-10T14:52:22.841Z,97889.20
2019-05-10T14:54:54.832Z,97892.86
2019-05-10T14:57:18.172Z,97896.38
2019-05-10T14:59:44.942Z,97894.09
2019-05-10T15:02:17.039Z,97889.52
2019-05-10T15:04:46.305Z,97901.28
2019-05-10T15:07:14.338Z,97893.36
2019-05-10T15:09:40.548Z,97902.07
2019-05-10T15:12:10.095Z,97905.11
2019-05-10T15:14:35.675Z,97907.84
2019-05-10T15:17:02.267Z,97908.02
2019-05-10T15:19:31.520Z,97910.85
2019-05-10T15:21:57.740Z,97908.81
2019-05-10T15:24:25.350Z,97908.11
2019-05-10T15:26:53.614Z,97900.84
2019-05-10T15:29:22.535Z,97901.20
2019-05-10T15:31:48.968Z,97904.23
2019-05-10T15:34:15.883Z,97898.85
2019-05-10T15:36:42.793Z,97899.57
2019-05-10T15:39:09.306Z,97901.17
2019-05-10T15:41:36.309Z,97908.09
2019-05-10T15:44:03.063Z,97904.83
2019-05-10T15:46:39.906Z,97909.94
2019-05-10T15:48:58.065Z,97913.73
2019-05-10T15:51:35.614Z,97916.22
2019-05-10T15:54:03.682Z,97920.39
2019-05-10T15:56:22.087Z,97913.68
2019-05-10T15:58:49.670Z,97923.16
2019-05-10T16:01:26.021Z,97926.63
2019-05-10T16:03:46.198Z,97923.47
2019-05-10T16:06:12.861Z,97925.22
2019-05-10T16:08:43.643Z,97921.13
2019-05-10T16:11:17.548Z,97925.45
2019-05-10T16:13:38.934Z,97927.83
2019-05-10T16:16:05.472Z,97931.62
2019-05-10T16:18:33.340Z,97928.92
2019-05-10T16:21:00.899Z,97927.74
2019-05-10T16:23:27.717Z,97938.80
2019-05-10T16:25:58.485Z,97935.41
2019-05-10T16:28:25.136Z,97933.23
2019-05-10T16:30:51.755Z,97938.59
2019-05-10T16:33:18.677Z,97938.30
2019-05-10T16:35:49.757Z,97940.20
2019-05-10T16:38:19.818Z,97942.48
2019-05-10T16:40:57.480Z,97942.33
2019-05-10T16:43:20.558Z,97945.43
2019-05-10T16:45:43.711Z,97949.11
2019-05-10T16:48:12.666Z,97943.83
2019-05-10T16:50:39.457Z,97944.13
2019-05-10T16:53:08.115Z,97941.72
2019-05-10T16:55:35.487Z,97951.67
2019-05-10T16:58:03.169Z,97958.00
2019-05-10T17:00:31.099Z,97958.30
2019-05-10T17:02:57.756Z,97957.20
2019-05-10T17:05:24.547Z,97958.73
2019-05-10T17:07:53.830Z,97964.22
2019-05-10T17:10:19.822Z,97967.54
2019-05-10T17:12:46.612Z,97970.62
2019-05-10T17:15:13.306Z,97973.61
2019-05-10T17:17:39.847Z,97980.27
2019-05-10T17:20:15.980Z,97986.50
2019-05-10T17:22:42.654Z,97979.20
2019-05-10T17:25:09.422Z,97990.55
2019-05-10T17:27:36.165Z,97991.05
2019-05-10T17:30:03.853Z,97985.27
2019-05-10T17:32:30.667Z,97984.03
2019-05-10T17:34:59.261Z,97991.98
2019-05-10T17:37:29.840Z,97986.58
2019-05-10T17:39:54.633Z,97996.30
2019-05-10T17:42:21.493Z,97994.68
2019-05-10T17:44:48.198Z,98002.77
2019-05-10T17:47:15.270Z,97997.84
2019-05-10T17:49:41.918Z,98005.61
2019-05-10T17:52:13.879Z,98006.50
2019-05-10T17:54:40.967Z,98005.55
2019-05-10T17:57:10.684Z,98002.07
2019-05-10T17:59:38.849Z,98008.67
2019-05-10T18:02:07.152Z,98014.68
2019-05-10T18:04:35.730Z,98017.57
2019-05-10T18:07:03.353Z,98022.73
2019-05-10T18:09:31.501Z,98023.27
2019-05-10T18:12:15.655Z,98024.84
2019-05-10T18:14:40.790Z,98023.84
2019-05-10T18:17:08.822Z,98029.45
2019-05-10T18:19:36.746Z,98029.33
2019-05-10T18:22:07.170Z,98030.12
2019-05-10T18:24:41.405Z,98030.33
2019-05-10T18:27:05.266Z,98033.83
2019-05-10T18:29:33.481Z,98039.73
2019-05-10T18:32:00.100Z,98042.62
2019-05-10T18:34:33.203Z,98046.64
2019-05-10T18:39:35.597Z,98051.00
2019-05-10T18:42:02.160Z,98048.66
2019-05-10T18:44:28.781Z,98052.22
2019-05-10T18:46:55.286Z,98055.13
2019-05-10T18:49:21.928Z,98055.44
2019-05-10T18:51:48.620Z,98058.63
2019-05-10T18:54:15.434Z,98054.97
2019-05-10T18:56:42.502Z,98062.23
2019-05-10T18:59:09.508Z,98062.12
2019-05-10T19:01:38.741Z,98062.05
2019-05-10T19:04:07.214Z,98062.00
2019-05-10T19:06:33.872Z,98066.17
2019-05-10T19:09:01.175Z,98058.34
2019-05-10T19:11:33.318Z,98060.95
2019-05-10T19:13:56.697Z,98063.92
2019-05-10T19:16:25.983Z,98062.53
2019-05-10T19:18:55.868Z,98065.86
2019-05-10T19:21:24.989Z,98068.05
2019-05-10T19:23:52.181Z,98066.14
2019-05-10T19:26:18.571Z,98069.09
2019-05-10T19:28:45.177Z,98075.09
2019-05-10T19:31:14.543Z,98078.21
2019-05-10T19:33:43.375Z,98080.09
2019-05-10T19:36:13.041Z,98080.59
2019-05-10T19:38:41.200Z,98073.17
2019-05-10T19:41:08.577Z,98067.36
2019-05-10T19:43:35.151Z,98067.38
2019-05-10T19:46:12.156Z,98070.62
2019-05-10T19:48:56.046Z,98071.08
2019-05-10T19:51:25.177Z,98067.40
2019-05-10T19:53:52.460Z,98069.92
2019-05-10T19:56:20.526Z,98068.20
2019-05-10T19:58:49.352Z,98078.13
2019-05-10T20:01:18.105Z,98084.89
2019-05-10T20:03:45.245Z,98088.25
2019-05-10T20:06:12.018Z,98089.47
2019-05-10T20:08:43.128Z,98087.94
2019-05-10T20:11:14.313Z,98088.52
2019-05-10T20:13:50.482Z,98097.24
2019-05-10T20:16:17.213Z,98092.54
2019-05-10T20:19:09.109Z,98089.33
2019-05-10T20:22:12.524Z,98090.16
2019-05-10T20:24:25.384Z,98100.34
2019-05-10T20:26:52.204Z,98103.37
2019-05-10T20:29:20.040Z,98110.75
2019-05-10T20:31:52.861Z,98108.73
2019-05-10T20:34:24.209Z,98105.38
2019-05-10T20:36:49.975Z,98101.82
2019-05-10T20:39:28.867Z,98100.40
2019-05-10T20:42:00.041Z,98095.39
2019-05-10T20:44:28.134Z,98091.61
2019-05-10T20:46:55.013Z,98090.89
2019-05-10T20:49:22.068Z,98090.11
2019-05-10T20:51:48.572Z,98085.91
2019-05-10T20:54:15.585Z,98087.36
2019-05-10T20:56:42.551Z,98078.17
2019-05-10T20:59:09.365Z,98080.89
2019-05-10T21:01:35.963Z,98084.40
2019-05-10T21:04:02.624Z,98091.45
2019-05-10T21:06:29.116Z,98085.39
2019-05-10T21:08:56.306Z,98084.98
2019-05-10T21:11:22.820Z,98094.13
2019-05-10T21:13:49.641Z,98096.33
2019-05-10T21:16:16.429Z,98096.78
2019-05-10T21:18:42.939Z,98111.23
2019-05-10T21:21:09.488Z,98123.05
2019-05-10T21:23:36.036Z,98122.16
2019-05-10T21:26:02.870Z,98116.94
2019-05-10T21:28:29.391Z,98119.96
2019-05-10T21:30:56.061Z,98122.58
2019-05-10T21:33:22.669Z,98123.34
2019-05-10T21:35:49.251Z,98124.97
2019-05-10T21:38:15.840Z,98132.33
2019-05-10T21:40:42.328Z,98143.23
2019-05-10T21:43:09.205Z,98132.30
2019-05-10T21:45:36.005Z,98129.72
2019-05-10T21:48:02.596Z,98123.63
2019-05-10T21:50:29.111Z,98135.42
2019-05-10T21:52:55.660Z,98139.31
2019-05-10T21:55:23.686Z,98136.70
2019-05-10T21:57:50.207Z,98134.09
2019-05-10T22:00:18.486Z,98140.97
2019-05-10T22:02:45.351Z,98141.73
2019-05-10T22:05:12.738Z,98139.95
2019-05-10T22:07:39.204Z,98130.20
2019-05-10T22:10:05.955Z,98130.83
2019-05-10T22:12:32.552Z,98128.47
2019-05-10T22:14:59.142Z,98127.09
2019-05-10T22:17:25.658Z,98121.11
2019-05-10T22:19:52.564Z,98116.32
2019-05-10T22:22:19.067Z,98102.83
2019-05-10T22:24:45.634Z,98092.47
2019-05-10T22:27:13.211Z,98085.48
2019-05-10T22:29:39.877Z,98087.20
2019-05-10T22:32:06.572Z,98090.60
2019-05-10T22:34:34.282Z,98102.80
2019-05-10T22:37:00.807Z,98112.88
2019-05-10T22:39:27.386Z,98115.98
2019-05-10T22:41:53.981Z,98112.69
2019-05-10T22:44:20.644Z,98108.48
2019-05-10T22:46:47.164Z,98118.95
2019-05-10T22:49:13.830Z,98130.59
2019-05-10T22:51:42.031Z,98133.06
2019-05-10T22:54:08.597Z,98124.01
2019-05-10T22:56:35.073Z,98111.45
2019-05-10T22:59:01.992Z,98121.42
2019-05-10T23:01:28.554Z,98123.53
2019-05-10T23:03:55.039Z,98113.48
2019-05-10T23:06:21.550Z,98098.19
2019-05-10T23:08:48.025Z,98088.51
2019-05-10T23:11:14.536Z,98084.06
2019-05-10T23:13:40.997Z,98078.72
2019-05-10T23:16:08.215Z,98077.86
2019-05-10T23:18:34.760Z,98085.22
2019-05-10T23:21:01.255Z,98080.40
2019-05-10T23:23:27.799Z,98075.16
2019-05-10T23:25:54.267Z,98067.27
2019-05-10T23:28:20.960Z,98067.20
2019-05-10T23:30:47.526Z,98062.33
2019-05-10T23:33:14.292Z,98057.50
2019-05-10T23:35:40.798Z,98055.22
2019-05-10T23:38:07.273Z,98055.92
2019-05-10T23:40:34.032Z,98051.91
2019-05-10T23:43:00.859Z,98052.22
2019-05-10T23:45:27.381Z,98040.73
2019-05-10T23:47:53.836Z,98046.05
2019-05-10T23:50:20.389Z,98046.59
2019-05-10T23:52:46.905Z,98035.34
2019-05-10T23:55:13.792Z,98033.34
2019-05-10T23:57:40.355Z,98030.84
